sensor_id;sensor_type;location;lat;lon;timestamp;P1;durP1;ratioP1;P2;durP2;ratioP2
64174;SDS011;50469;50.438;-119.202;2023-07-29T00:02:09;5.88;;;2.55;;
64174;SDS011;50469;50.438;-119.202;2023-07-29T00:04:40;6.88;;;2.58;;
64174;SDS011;50469;50.438;-119.202;2023-07-29T00:07:08;4.15;;;2.22;;
64174;SDS011;50469;50.438;-119.202;2023-07-29T00:09:39;3.22;;;2.40;;
64174;SDS011;50469;50.438;-119.202;2023-07-29T00:12:07;4.07;;;2.85;;
64174;SDS011;50469;50.438;-119.202;2023-07-29T00:14:38;11.35;;;2.88;;
64174;SDS011;50469;50.438;-119.202;2023-07-29T00:17:06;7.60;;;3.40;;
64174;SDS011;50469;50.438;-119.202;2023-07-29T00:19:34;6.10;;;2.65;;
64174;SDS011;50469;50.438;-119.202;2023-07-29T00:22:02;5.50;;;2.80;;
64174;SDS011;50469;50.438;-119.202;2023-07-29T00:24:31;6.38;;;2.78;;
64174;SDS011;50469;50.438;-119.202;2023-07-29T00:26:59;16.30;;;3.45;;
64174;SDS011;50469;50.438;-119.202;2023-07-29T00:29:27;4.47;;;2.60;;
64174;SDS011;50469;50.438;-119.202;2023-07-29T00:31:55;6.53;;;3.20;;
64174;SDS011;50469;50.438;-119.202;2023-07-29T00:34:23;9.68;;;2.88;;
64174;SDS011;50469;50.438;-119.202;2023-07-29T00:36:52;6.78;;;3.25;;
64174;SDS011;50469;50.438;-119.202;2023-07-29T00:39:22;15.68;;;2.65;;
64174;SDS011;50469;50.438;-119.202;2023-07-29T00:41:50;5.57;;;3.10;;
64174;SDS011;50469;50.438;-119.202;2023-07-29T00:44:18;10.02;;;3.35;;
64174;SDS011;50469;50.438;-119.202;2023-07-29T00:46:46;4.80;;;2.80;;
64174;SDS011;50469;50.438;-119.202;2023-07-29T00:49:18;4.30;;;2.70;;
64174;SDS011;50469;50.438;-119.202;2023-07-29T00:51:47;3.60;;;2.92;;
64174;SDS011;50469;50.438;-119.202;2023-07-29T00:54:18;4.68;;;3.10;;
64174;SDS011;50469;50.438;-119.202;2023-07-29T00:56:46;6.35;;;3.35;;
64174;SDS011;50469;50.438;-119.202;2023-07-29T00:59:14;6.75;;;3.50;;
64174;SDS011;50469;50.438;-119.202;2023-07-29T01:01:45;6.68;;;3.17;;
64174;SDS011;50469;50.438;-119.202;2023-07-29T01:04:16;6.45;;;3.22;;
64174;SDS011;50469;50.438;-119.202;2023-07-29T01:06:57;4.55;;;2.90;;
64174;SDS011;50469;50.438;-119.202;2023-07-29T01:12:03;5.57;;;2.83;;
64174;SDS011;50469;50.438;-119.202;2023-07-29T01:17:22;3.30;;;2.70;;
64174;SDS011;50469;50.438;-119.202;2023-07-29T01:20:13;7.00;;;2.60;;
64174;SDS011;50469;50.438;-119.202;2023-07-29T01:22:45;7.22;;;3.78;;
64174;SDS011;50469;50.438;-119.202;2023-07-29T01:25:16;9.48;;;3.50;;
64174;SDS011;50469;50.438;-119.202;2023-07-29T01:27:46;4.28;;;3.10;;
64174;SDS011;50469;50.438;-119.202;2023-07-29T01:30:15;8.18;;;2.85;;
64174;SDS011;50469;50.438;-119.202;2023-07-29T01:35:31;9.13;;;3.55;;
64174;SDS011;50469;50.438;-119.202;2023-07-29T01:38:09;7.68;;;4.10;;
64174;SDS011;50469;50.438;-119.202;2023-07-29T01:40:45;6.80;;;3.85;;
64174;SDS011;50469;50.438;-119.202;2023-07-29T01:43:15;5.15;;;3.35;;
64174;SDS011;50469;50.438;-119.202;2023-07-29T01:45:43;11.68;;;3.55;;
64174;SDS011;50469;50.438;-119.202;2023-07-29T01:48:12;10.95;;;4.30;;
64174;SDS011;50469;50.438;-119.202;2023-07-29T01:50:40;8.60;;;2.95;;
64174;SDS011;50469;50.438;-119.202;2023-07-29T01:53:08;10.95;;;3.35;;
64174;SDS011;50469;50.438;-119.202;2023-07-29T01:55:39;7.88;;;3.60;;
64174;SDS011;50469;50.438;-119.202;2023-07-29T01:58:08;3.83;;;2.88;;
64174;SDS011;50469;50.438;-119.202;2023-07-29T02:00:36;8.82;;;3.20;;
64174;SDS011;50469;50.438;-119.202;2023-07-29T02:03:04;4.85;;;3.30;;
64174;SDS011;50469;50.438;-119.202;2023-07-29T02:05:32;6.70;;;3.75;;
64174;SDS011;50469;50.438;-119.202;2023-07-29T02:08:05;8.65;;;3.63;;
64174;SDS011;50469;50.438;-119.202;2023-07-29T02:10:36;9.38;;;3.17;;
64174;SDS011;50469;50.438;-119.202;2023-07-29T02:13:05;13.75;;;3.40;;
64174;SDS011;50469;50.438;-119.202;2023-07-29T02:15:33;6.95;;;3.63;;
64174;SDS011;50469;50.438;-119.202;2023-07-29T02:18:04;5.07;;;3.42;;
64174;SDS011;50469;50.438;-119.202;2023-07-29T02:20:32;5.15;;;3.65;;
64174;SDS011;50469;50.438;-119.202;2023-07-29T02:23:00;7.60;;;3.30;;
64174;SDS011;50469;50.438;-119.202;2023-07-29T02:25:28;4.50;;;3.38;;
64174;SDS011;50469;50.438;-119.202;2023-07-29T02:27:59;5.53;;;3.47;;
64174;SDS011;50469;50.438;-119.202;2023-07-29T02:30:29;5.28;;;3.38;;
64174;SDS011;50469;50.438;-119.202;2023-07-29T02:32:57;6.25;;;3.67;;
64174;SDS011;50469;50.438;-119.202;2023-07-29T02:35:26;4.82;;;3.25;;
64174;SDS011;50469;50.438;-119.202;2023-07-29T02:37:54;13.75;;;3.83;;
64174;SDS011;50469;50.438;-119.202;2023-07-29T02:40:24;11.30;;;3.40;;
64174;SDS011;50469;50.438;-119.202;2023-07-29T02:42:52;14.25;;;3.92;;
64174;SDS011;50469;50.438;-119.202;2023-07-29T02:45:20;7.15;;;3.60;;
64174;SDS011;50469;50.438;-119.202;2023-07-29T02:47:49;4.82;;;3.60;;
64174;SDS011;50469;50.438;-119.202;2023-07-29T02:50:17;4.70;;;3.30;;
64174;SDS011;50469;50.438;-119.202;2023-07-29T02:52:45;7.30;;;3.63;;
64174;SDS011;50469;50.438;-119.202;2023-07-29T02:55:16;9.80;;;3.10;;
64174;SDS011;50469;50.438;-119.202;2023-07-29T02:57:44;7.82;;;3.78;;
64174;SDS011;50469;50.438;-119.202;2023-07-29T03:00:13;9.15;;;3.72;;
64174;SDS011;50469;50.438;-119.202;2023-07-29T03:02:41;11.45;;;4.07;;
64174;SDS011;50469;50.438;-119.202;2023-07-29T03:05:12;6.20;;;3.72;;
64174;SDS011;50469;50.438;-119.202;2023-07-29T03:07:43;5.72;;;3.50;;
64174;SDS011;50469;50.438;-119.202;2023-07-29T03:10:11;8.30;;;4.00;;
64174;SDS011;50469;50.438;-119.202;2023-07-29T03:12:39;11.20;;;3.92;;
64174;SDS011;50469;50.438;-119.202;2023-07-29T03:15:07;6.55;;;3.70;;
64174;SDS011;50469;50.438;-119.202;2023-07-29T03:17:35;6.63;;;3.33;;
64174;SDS011;50469;50.438;-119.202;2023-07-29T03:20:04;7.13;;;3.65;;
64174;SDS011;50469;50.438;-119.202;2023-07-29T03:22:38;9.48;;;3.65;;
64174;SDS011;50469;50.438;-119.202;2023-07-29T03:25:06;11.00;;;3.47;;
64174;SDS011;50469;50.438;-119.202;2023-07-29T03:27:34;7.75;;;3.40;;
64174;SDS011;50469;50.438;-119.202;2023-07-29T03:30:03;9.45;;;3.42;;
64174;SDS011;50469;50.438;-119.202;2023-07-29T03:32:31;6.10;;;3.95;;
64174;SDS011;50469;50.438;-119.202;2023-07-29T03:35:02;11.15;;;3.47;;
64174;SDS011;50469;50.438;-119.202;2023-07-29T03:37:31;7.47;;;3.88;;
64174;SDS011;50469;50.438;-119.202;2023-07-29T03:39:59;9.60;;;4.32;;
64174;SDS011;50469;50.438;-119.202;2023-07-29T03:42:33;11.55;;;3.88;;
64174;SDS011;50469;50.438;-119.202;2023-07-29T03:45:01;6.47;;;4.03;;
64174;SDS011;50469;50.438;-119.202;2023-07-29T03:47:29;6.88;;;3.88;;
64174;SDS011;50469;50.438;-119.202;2023-07-29T03:50:00;4.55;;;3.40;;
64174;SDS011;50469;50.438;-119.202;2023-07-29T03:52:30;5.47;;;3.58;;
64174;SDS011;50469;50.438;-119.202;2023-07-29T03:54:58;7.70;;;4.07;;
64174;SDS011;50469;50.438;-119.202;2023-07-29T03:57:26;6.05;;;3.65;;
64174;SDS011;50469;50.438;-119.202;2023-07-29T03:59:56;12.88;;;4.13;;
64174;SDS011;50469;50.438;-119.202;2023-07-29T04:02:24;11.13;;;4.05;;
64174;SDS011;50469;50.438;-119.202;2023-07-29T04:04:53;18.17;;;4.07;;
64174;SDS011;50469;50.438;-119.202;2023-07-29T04:07:23;15.18;;;4.22;;
64174;SDS011;50469;50.438;-119.202;2023-07-29T04:09:51;9.48;;;4.20;;
64174;SDS011;50469;50.438;-119.202;2023-07-29T04:12:23;10.70;;;4.18;;
64174;SDS011;50469;50.438;-119.202;2023-07-29T04:14:51;15.05;;;4.32;;
64174;SDS011;50469;50.438;-119.202;2023-07-29T04:17:24;7.78;;;4.40;;
64174;SDS011;50469;50.438;-119.202;2023-07-29T04:19:52;15.63;;;4.53;;
64174;SDS011;50469;50.438;-119.202;2023-07-29T04:22:23;13.30;;;3.92;;
64174;SDS011;50469;50.438;-119.202;2023-07-29T04:24:51;9.50;;;4.28;;
64174;SDS011;50469;50.438;-119.202;2023-07-29T04:27:22;13.93;;;4.18;;
64174;SDS011;50469;50.438;-119.202;2023-07-29T04:29:52;14.50;;;4.38;;
64174;SDS011;50469;50.438;-119.202;2023-07-29T04:32:23;7.47;;;4.35;;
64174;SDS011;50469;50.438;-119.202;2023-07-29T04:34:53;10.40;;;4.60;;
64174;SDS011;50469;50.438;-119.202;2023-07-29T04:37:24;8.20;;;4.43;;
64174;SDS011;50469;50.438;-119.202;2023-07-29T04:39:52;8.32;;;3.97;;
64174;SDS011;50469;50.438;-119.202;2023-07-29T04:42:20;8.65;;;3.53;;
64174;SDS011;50469;50.438;-119.202;2023-07-29T04:44:51;8.23;;;3.60;;
64174;SDS011;50469;50.438;-119.202;2023-07-29T04:47:21;5.53;;;3.85;;
64174;SDS011;50469;50.438;-119.202;2023-07-29T04:49:50;7.00;;;3.70;;
64174;SDS011;50469;50.438;-119.202;2023-07-29T04:52:19;10.15;;;3.60;;
64174;SDS011;50469;50.438;-119.202;2023-07-29T04:54:50;8.63;;;3.67;;
64174;SDS011;50469;50.438;-119.202;2023-07-29T04:57:21;22.65;;;4.00;;
64174;SDS011;50469;50.438;-119.202;2023-07-29T04:59:50;9.23;;;3.58;;
64174;SDS011;50469;50.438;-119.202;2023-07-29T05:02:18;6.13;;;3.63;;
64174;SDS011;50469;50.438;-119.202;2023-07-29T05:04:46;8.38;;;3.75;;
64174;SDS011;50469;50.438;-119.202;2023-07-29T05:07:14;16.50;;;4.03;;
64174;SDS011;50469;50.438;-119.202;2023-07-29T05:09:42;10.30;;;3.47;;
64174;SDS011;50469;50.438;-119.202;2023-07-29T05:12:10;13.75;;;4.75;;
64174;SDS011;50469;50.438;-119.202;2023-07-29T05:14:38;9.35;;;4.00;;
64174;SDS011;50469;50.438;-119.202;2023-07-29T05:17:07;8.68;;;4.28;;
64174;SDS011;50469;50.438;-119.202;2023-07-29T05:19:37;6.30;;;3.70;;
64174;SDS011;50469;50.438;-119.202;2023-07-29T05:22:05;14.68;;;4.20;;
64174;SDS011;50469;50.438;-119.202;2023-07-29T05:24:33;11.75;;;3.90;;
64174;SDS011;50469;50.438;-119.202;2023-07-29T05:27:01;6.03;;;3.50;;
64174;SDS011;50469;50.438;-119.202;2023-07-29T05:29:29;9.07;;;3.80;;
64174;SDS011;50469;50.438;-119.202;2023-07-29T05:31:57;8.55;;;4.03;;
64174;SDS011;50469;50.438;-119.202;2023-07-29T05:34:26;9.32;;;3.90;;
64174;SDS011;50469;50.438;-119.202;2023-07-29T05:36:54;8.18;;;4.20;;
64174;SDS011;50469;50.438;-119.202;2023-07-29T05:39:22;12.60;;;4.38;;
64174;SDS011;50469;50.438;-119.202;2023-07-29T05:41:50;12.90;;;4.13;;
64174;SDS011;50469;50.438;-119.202;2023-07-29T05:44:21;16.02;;;4.60;;
64174;SDS011;50469;50.438;-119.202;2023-07-29T05:46:49;14.73;;;4.07;;
64174;SDS011;50469;50.438;-119.202;2023-07-29T05:49:17;17.95;;;5.07;;
64174;SDS011;50469;50.438;-119.202;2023-07-29T05:51:48;11.77;;;4.57;;
64174;SDS011;50469;50.438;-119.202;2023-07-29T05:54:19;11.75;;;3.80;;
64174;SDS011;50469;50.438;-119.202;2023-07-29T05:56:50;10.10;;;4.60;;
64174;SDS011;50469;50.438;-119.202;2023-07-29T05:59:20;10.18;;;4.15;;
64174;SDS011;50469;50.438;-119.202;2023-07-29T06:01:48;8.35;;;3.95;;
64174;SDS011;50469;50.438;-119.202;2023-07-29T06:04:16;13.55;;;4.50;;
64174;SDS011;50469;50.438;-119.202;2023-07-29T06:06:45;8.98;;;4.15;;
64174;SDS011;50469;50.438;-119.202;2023-07-29T06:09:16;12.73;;;4.10;;
64174;SDS011;50469;50.438;-119.202;2023-07-29T06:14:14;10.32;;;4.35;;
64174;SDS011;50469;50.438;-119.202;2023-07-29T06:16:42;22.52;;;4.57;;
64174;SDS011;50469;50.438;-119.202;2023-07-29T06:19:10;11.75;;;4.32;;
64174;SDS011;50469;50.438;-119.202;2023-07-29T06:21:39;8.48;;;4.40;;
64174;SDS011;50469;50.438;-119.202;2023-07-29T06:24:07;12.00;;;4.45;;
64174;SDS011;50469;50.438;-119.202;2023-07-29T06:26:36;9.68;;;4.80;;
64174;SDS011;50469;50.438;-119.202;2023-07-29T06:29:05;11.27;;;4.40;;
64174;SDS011;50469;50.438;-119.202;2023-07-29T06:31:36;16.85;;;4.32;;
64174;SDS011;50469;50.438;-119.202;2023-07-29T06:34:04;7.97;;;4.00;;
64174;SDS011;50469;50.438;-119.202;2023-07-29T06:36:32;13.55;;;4.57;;
64174;SDS011;50469;50.438;-119.202;2023-07-29T06:39:03;6.72;;;4.35;;
64174;SDS011;50469;50.438;-119.202;2023-07-29T06:41:31;12.95;;;5.32;;
64174;SDS011;50469;50.438;-119.202;2023-07-29T06:43:59;7.82;;;4.43;;
64174;SDS011;50469;50.438;-119.202;2023-07-29T06:46:27;13.18;;;3.88;;
64174;SDS011;50469;50.438;-119.202;2023-07-29T06:48:55;11.45;;;4.82;;
64174;SDS011;50469;50.438;-119.202;2023-07-29T06:51:23;9.00;;;4.20;;
64174;SDS011;50469;50.438;-119.202;2023-07-29T06:53:51;12.48;;;4.50;;
64174;SDS011;50469;50.438;-119.202;2023-07-29T06:56:24;10.38;;;4.43;;
64174;SDS011;50469;50.438;-119.202;2023-07-29T06:58:52;12.68;;;4.68;;
64174;SDS011;50469;50.438;-119.202;2023-07-29T07:01:20;9.57;;;4.13;;
64174;SDS011;50469;50.438;-119.202;2023-07-29T07:03:51;13.30;;;4.30;;
64174;SDS011;50469;50.438;-119.202;2023-07-29T07:06:22;7.25;;;4.07;;
64174;SDS011;50469;50.438;-119.202;2023-07-29T07:08:53;22.08;;;4.82;;
64174;SDS011;50469;50.438;-119.202;2023-07-29T07:11:21;13.05;;;3.97;;
64174;SDS011;50469;50.438;-119.202;2023-07-29T07:13:55;9.52;;;4.40;;
64174;SDS011;50469;50.438;-119.202;2023-07-29T07:16:23;10.70;;;4.30;;
64174;SDS011;50469;50.438;-119.202;2023-07-29T07:18:51;13.63;;;4.63;;
64174;SDS011;50469;50.438;-119.202;2023-07-29T07:21:19;12.52;;;4.95;;
64174;SDS011;50469;50.438;-119.202;2023-07-29T07:23:49;9.57;;;3.75;;
64174;SDS011;50469;50.438;-119.202;2023-07-29T07:26:20;11.32;;;4.10;;
64174;SDS011;50469;50.438;-119.202;2023-07-29T07:28:50;7.00;;;4.18;;
64174;SDS011;50469;50.438;-119.202;2023-07-29T07:31:18;18.83;;;3.80;;
64174;SDS011;50469;50.438;-119.202;2023-07-29T07:33:47;11.85;;;3.90;;
64174;SDS011;50469;50.438;-119.202;2023-07-29T07:36:15;9.40;;;4.97;;
64174;SDS011;50469;50.438;-119.202;2023-07-29T07:38:43;7.68;;;4.22;;
64174;SDS011;50469;50.438;-119.202;2023-07-29T07:41:11;7.97;;;4.03;;
64174;SDS011;50469;50.438;-119.202;2023-07-29T07:43:39;14.43;;;4.45;;
64174;SDS011;50469;50.438;-119.202;2023-07-29T07:46:07;12.32;;;5.63;;
64174;SDS011;50469;50.438;-119.202;2023-07-29T07:48:35;7.65;;;5.13;;
64174;SDS011;50469;50.438;-119.202;2023-07-29T07:51:13;11.65;;;5.80;;
64174;SDS011;50469;50.438;-119.202;2023-07-29T07:53:41;13.40;;;6.07;;
64174;SDS011;50469;50.438;-119.202;2023-07-29T07:56:12;13.98;;;4.60;;
64174;SDS011;50469;50.438;-119.202;2023-07-29T07:58:40;8.48;;;5.35;;
64174;SDS011;50469;50.438;-119.202;2023-07-29T08:01:08;17.13;;;5.45;;
64174;SDS011;50469;50.438;-119.202;2023-07-29T08:03:37;9.07;;;4.20;;
64174;SDS011;50469;50.438;-119.202;2023-07-29T08:06:05;10.70;;;4.85;;
64174;SDS011;50469;50.438;-119.202;2023-07-29T08:08:36;8.63;;;5.30;;
64174;SDS011;50469;50.438;-119.202;2023-07-29T08:11:04;19.67;;;5.47;;
64174;SDS011;50469;50.438;-119.202;2023-07-29T08:13:32;14.77;;;5.30;;
64174;SDS011;50469;50.438;-119.202;2023-07-29T08:16:00;13.90;;;4.93;;
64174;SDS011;50469;50.438;-119.202;2023-07-29T08:18:31;17.30;;;5.38;;
64174;SDS011;50469;50.438;-119.202;2023-07-29T08:20:59;13.48;;;4.80;;
64174;SDS011;50469;50.438;-119.202;2023-07-29T08:23:31;8.52;;;4.57;;
64174;SDS011;50469;50.438;-119.202;2023-07-29T08:26:05;12.98;;;5.03;;
64174;SDS011;50469;50.438;-119.202;2023-07-29T08:28:35;13.93;;;5.22;;
64174;SDS011;50469;50.438;-119.202;2023-07-29T08:31:09;10.48;;;5.88;;
64174;SDS011;50469;50.438;-119.202;2023-07-29T08:33:39;14.77;;;5.53;;
64174;SDS011;50469;50.438;-119.202;2023-07-29T08:36:08;12.27;;;4.88;;
64174;SDS011;50469;50.438;-119.202;2023-07-29T08:38:38;15.57;;;5.47;;
64174;SDS011;50469;50.438;-119.202;2023-07-29T08:41:25;9.85;;;5.28;;
64174;SDS011;50469;50.438;-119.202;2023-07-29T08:46:51;12.20;;;5.85;;
64174;SDS011;50469;50.438;-119.202;2023-07-29T08:49:19;14.25;;;6.10;;
64174;SDS011;50469;50.438;-119.202;2023-07-29T08:51:48;8.88;;;4.90;;
64174;SDS011;50469;50.438;-119.202;2023-07-29T08:54:20;19.75;;;4.82;;
64174;SDS011;50469;50.438;-119.202;2023-07-29T08:56:49;8.10;;;4.95;;
64174;SDS011;50469;50.438;-119.202;2023-07-29T08:59:20;17.35;;;6.13;;
64174;SDS011;50469;50.438;-119.202;2023-07-29T09:01:51;14.38;;;4.10;;
64174;SDS011;50469;50.438;-119.202;2023-07-29T09:04:21;11.52;;;4.50;;
64174;SDS011;50469;50.438;-119.202;2023-07-29T09:06:50;9.23;;;4.68;;
64174;SDS011;50469;50.438;-119.202;2023-07-29T09:09:18;8.73;;;4.60;;
64174;SDS011;50469;50.438;-119.202;2023-07-29T09:11:46;11.82;;;4.90;;
64174;SDS011;50469;50.438;-119.202;2023-07-29T09:14:14;9.98;;;5.57;;
64174;SDS011;50469;50.438;-119.202;2023-07-29T09:16:43;9.20;;;4.72;;
64174;SDS011;50469;50.438;-119.202;2023-07-29T09:19:11;12.25;;;5.30;;
64174;SDS011;50469;50.438;-119.202;2023-07-29T09:21:39;11.68;;;5.63;;
64174;SDS011;50469;50.438;-119.202;2023-07-29T09:24:08;8.35;;;4.95;;
64174;SDS011;50469;50.438;-119.202;2023-07-29T09:26:39;10.23;;;5.45;;
64174;SDS011;50469;50.438;-119.202;2023-07-29T09:29:15;13.80;;;5.38;;
64174;SDS011;50469;50.438;-119.202;2023-07-29T09:31:51;11.52;;;5.57;;
64174;SDS011;50469;50.438;-119.202;2023-07-29T09:34:23;8.88;;;5.28;;
64174;SDS011;50469;50.438;-119.202;2023-07-29T09:36:51;11.90;;;5.63;;
64174;SDS011;50469;50.438;-119.202;2023-07-29T09:39:20;16.00;;;6.28;;
64174;SDS011;50469;50.438;-119.202;2023-07-29T09:41:50;9.73;;;5.63;;
64174;SDS011;50469;50.438;-119.202;2023-07-29T09:44:18;14.13;;;5.43;;
64174;SDS011;50469;50.438;-119.202;2023-07-29T09:46:46;11.88;;;6.05;;
64174;SDS011;50469;50.438;-119.202;2023-07-29T09:49:17;10.85;;;5.35;;
64174;SDS011;50469;50.438;-119.202;2023-07-29T09:51:45;13.80;;;5.57;;
64174;SDS011;50469;50.438;-119.202;2023-07-29T09:54:13;15.85;;;5.45;;
64174;SDS011;50469;50.438;-119.202;2023-07-29T09:56:42;12.00;;;5.15;;
64174;SDS011;50469;50.438;-119.202;2023-07-29T09:59:11;9.05;;;5.10;;
64174;SDS011;50469;50.438;-119.202;2023-07-29T10:01:39;13.60;;;5.85;;
64174;SDS011;50469;50.438;-119.202;2023-07-29T10:04:09;15.45;;;5.70;;
64174;SDS011;50469;50.438;-119.202;2023-07-29T10:06:39;13.45;;;5.40;;
64174;SDS011;50469;50.438;-119.202;2023-07-29T10:09:10;12.07;;;5.38;;
64174;SDS011;50469;50.438;-119.202;2023-07-29T10:11:39;11.63;;;5.43;;
64174;SDS011;50469;50.438;-119.202;2023-07-29T10:14:09;11.68;;;5.47;;
64174;SDS011;50469;50.438;-119.202;2023-07-29T10:16:37;10.02;;;6.00;;
64174;SDS011;50469;50.438;-119.202;2023-07-29T10:19:07;13.20;;;6.22;;
64174;SDS011;50469;50.438;-119.202;2023-07-29T10:21:40;15.80;;;5.10;;
64174;SDS011;50469;50.438;-119.202;2023-07-29T10:24:16;11.25;;;6.38;;
64174;SDS011;50469;50.438;-119.202;2023-07-29T10:26:47;19.27;;;5.47;;
64174;SDS011;50469;50.438;-119.202;2023-07-29T10:29:18;9.90;;;5.00;;
64174;SDS011;50469;50.438;-119.202;2023-07-29T10:31:47;9.90;;;5.63;;
64174;SDS011;50469;50.438;-119.202;2023-07-29T10:34:20;21.27;;;6.22;;
64174;SDS011;50469;50.438;-119.202;2023-07-29T10:36:48;18.27;;;6.25;;
64174;SDS011;50469;50.438;-119.202;2023-07-29T10:39:17;14.48;;;5.78;;
64174;SDS011;50469;50.438;-119.202;2023-07-29T10:47:17;11.75;;;5.57;;
64174;SDS011;50469;50.438;-119.202;2023-07-29T10:49:46;8.07;;;5.13;;
64174;SDS011;50469;50.438;-119.202;2023-07-29T10:52:17;11.82;;;5.43;;
64174;SDS011;50469;50.438;-119.202;2023-07-29T10:58:04;13.10;;;5.57;;
64174;SDS011;50469;50.438;-119.202;2023-07-29T11:00:36;10.65;;;6.05;;
64174;SDS011;50469;50.438;-119.202;2023-07-29T11:03:06;11.50;;;6.72;;
64174;SDS011;50469;50.438;-119.202;2023-07-29T11:05:44;13.88;;;5.45;;
64174;SDS011;50469;50.438;-119.202;2023-07-29T11:08:17;10.30;;;5.75;;
64174;SDS011;50469;50.438;-119.202;2023-07-29T11:11:00;11.20;;;5.55;;
64174;SDS011;50469;50.438;-119.202;2023-07-29T11:13:33;12.07;;;5.53;;
64174;SDS011;50469;50.438;-119.202;2023-07-29T11:16:03;14.43;;;5.28;;
64174;SDS011;50469;50.438;-119.202;2023-07-29T11:18:36;13.48;;;5.53;;
64174;SDS011;50469;50.438;-119.202;2023-07-29T11:21:04;12.63;;;5.95;;
64174;SDS011;50469;50.438;-119.202;2023-07-29T11:23:34;11.82;;;5.90;;
64174;SDS011;50469;50.438;-119.202;2023-07-29T11:26:04;10.00;;;5.82;;
64174;SDS011;50469;50.438;-119.202;2023-07-29T11:28:37;18.52;;;6.75;;
64174;SDS011;50469;50.438;-119.202;2023-07-29T11:33:34;13.70;;;6.18;;
64174;SDS011;50469;50.438;-119.202;2023-07-29T11:36:06;11.88;;;6.32;;
64174;SDS011;50469;50.438;-119.202;2023-07-29T11:38:34;19.20;;;6.05;;
64174;SDS011;50469;50.438;-119.202;2023-07-29T11:41:02;10.95;;;6.38;;
64174;SDS011;50469;50.438;-119.202;2023-07-29T11:43:34;13.52;;;6.18;;
64174;SDS011;50469;50.438;-119.202;2023-07-29T11:46:07;15.38;;;6.15;;
64174;SDS011;50469;50.438;-119.202;2023-07-29T11:48:35;13.70;;;6.00;;
64174;SDS011;50469;50.438;-119.202;2023-07-29T11:51:03;13.93;;;6.82;;
64174;SDS011;50469;50.438;-119.202;2023-07-29T11:53:33;15.38;;;6.70;;
64174;SDS011;50469;50.438;-119.202;2023-07-29T11:56:01;20.00;;;6.03;;
64174;SDS011;50469;50.438;-119.202;2023-07-29T11:58:31;20.45;;;5.55;;
64174;SDS011;50469;50.438;-119.202;2023-07-29T12:00:59;8.93;;;5.60;;
64174;SDS011;50469;50.438;-119.202;2023-07-29T12:03:31;11.07;;;6.22;;
64174;SDS011;50469;50.438;-119.202;2023-07-29T12:05:59;10.77;;;5.63;;
64174;SDS011;50469;50.438;-119.202;2023-07-29T12:08:28;13.48;;;6.20;;
64174;SDS011;50469;50.438;-119.202;2023-07-29T12:10:56;18.00;;;5.63;;
64174;SDS011;50469;50.438;-119.202;2023-07-29T12:13:24;17.23;;;6.78;;
64174;SDS011;50469;50.438;-119.202;2023-07-29T12:15:52;15.15;;;6.45;;
64174;SDS011;50469;50.438;-119.202;2023-07-29T12:18:30;19.23;;;6.38;;
64174;SDS011;50469;50.438;-119.202;2023-07-29T12:20:58;12.75;;;6.35;;
64174;SDS011;50469;50.438;-119.202;2023-07-29T12:23:29;12.20;;;6.80;;
64174;SDS011;50469;50.438;-119.202;2023-07-29T12:25:58;12.48;;;5.72;;
64174;SDS011;50469;50.438;-119.202;2023-07-29T12:28:26;17.67;;;6.40;;
64174;SDS011;50469;50.438;-119.202;2023-07-29T12:30:55;9.30;;;5.82;;
64174;SDS011;50469;50.438;-119.202;2023-07-29T12:33:36;8.73;;;5.22;;
64174;SDS011;50469;50.438;-119.202;2023-07-29T12:36:04;17.08;;;7.85;;
64174;SDS011;50469;50.438;-119.202;2023-07-29T12:38:33;8.75;;;5.70;;
64174;SDS011;50469;50.438;-119.202;2023-07-29T12:41:03;15.50;;;5.35;;
64174;SDS011;50469;50.438;-119.202;2023-07-29T12:43:32;14.82;;;6.50;;
64174;SDS011;50469;50.438;-119.202;2023-07-29T12:46:00;12.45;;;6.50;;
64174;SDS011;50469;50.438;-119.202;2023-07-29T12:48:28;13.77;;;6.25;;
64174;SDS011;50469;50.438;-119.202;2023-07-29T12:50:56;21.00;;;6.63;;
64174;SDS011;50469;50.438;-119.202;2023-07-29T12:53:24;11.88;;;6.28;;
64174;SDS011;50469;50.438;-119.202;2023-07-29T12:55:54;16.10;;;5.90;;
64174;SDS011;50469;50.438;-119.202;2023-07-29T12:58:25;13.35;;;5.75;;
64174;SDS011;50469;50.438;-119.202;2023-07-29T13:00:53;18.85;;;6.30;;
64174;SDS011;50469;50.438;-119.202;2023-07-29T13:03:21;9.80;;;6.25;;
64174;SDS011;50469;50.438;-119.202;2023-07-29T13:05:49;19.80;;;7.43;;
64174;SDS011;50469;50.438;-119.202;2023-07-29T13:08:19;11.80;;;6.82;;
64174;SDS011;50469;50.438;-119.202;2023-07-29T13:10:49;15.90;;;6.10;;
64174;SDS011;50469;50.438;-119.202;2023-07-29T13:13:20;18.80;;;7.57;;
64174;SDS011;50469;50.438;-119.202;2023-07-29T13:15:48;22.95;;;7.90;;
64174;SDS011;50469;50.438;-119.202;2023-07-29T13:18:19;15.07;;;8.65;;
64174;SDS011;50469;50.438;-119.202;2023-07-29T13:20:47;16.73;;;8.30;;
64174;SDS011;50469;50.438;-119.202;2023-07-29T13:23:15;15.38;;;7.30;;
64174;SDS011;50469;50.438;-119.202;2023-07-29T13:25:43;21.60;;;8.20;;
64174;SDS011;50469;50.438;-119.202;2023-07-29T13:28:12;12.63;;;7.22;;
64174;SDS011;50469;50.438;-119.202;2023-07-29T13:30:40;19.40;;;8.45;;
64174;SDS011;50469;50.438;-119.202;2023-07-29T13:33:09;17.48;;;8.30;;
64174;SDS011;50469;50.438;-119.202;2023-07-29T13:35:40;18.45;;;8.82;;
64174;SDS011;50469;50.438;-119.202;2023-07-29T13:38:08;16.90;;;8.70;;
64174;SDS011;50469;50.438;-119.202;2023-07-29T13:40:36;20.83;;;8.68;;
64174;SDS011;50469;50.438;-119.202;2023-07-29T13:43:06;21.05;;;8.82;;
64174;SDS011;50469;50.438;-119.202;2023-07-29T13:45:37;19.60;;;8.98;;
64174;SDS011;50469;50.438;-119.202;2023-07-29T13:48:06;12.02;;;7.90;;
64174;SDS011;50469;50.438;-119.202;2023-07-29T13:50:34;19.67;;;9.57;;
64174;SDS011;50469;50.438;-119.202;2023-07-29T13:53:03;16.77;;;9.27;;
64174;SDS011;50469;50.438;-119.202;2023-07-29T13:55:34;18.45;;;9.15;;
64174;SDS011;50469;50.438;-119.202;2023-07-29T13:58:02;16.40;;;8.35;;
64174;SDS011;50469;50.438;-119.202;2023-07-29T14:00:33;14.77;;;7.68;;
64174;SDS011;50469;50.438;-119.202;2023-07-29T14:03:01;18.25;;;9.02;;
64174;SDS011;50469;50.438;-119.202;2023-07-29T14:05:32;12.23;;;7.43;;
64174;SDS011;50469;50.438;-119.202;2023-07-29T14:08:00;19.15;;;8.15;;
64174;SDS011;50469;50.438;-119.202;2023-07-29T14:10:28;18.95;;;7.38;;
64174;SDS011;50469;50.438;-119.202;2023-07-29T14:12:58;15.40;;;7.38;;
64174;SDS011;50469;50.438;-119.202;2023-07-29T14:15:26;15.25;;;7.97;;
64174;SDS011;50469;50.438;-119.202;2023-07-29T14:17:55;17.52;;;7.75;;
64174;SDS011;50469;50.438;-119.202;2023-07-29T14:20:25;14.27;;;6.60;;
64174;SDS011;50469;50.438;-119.202;2023-07-29T14:22:53;15.40;;;7.80;;
64174;SDS011;50469;50.438;-119.202;2023-07-29T14:25:24;12.02;;;7.38;;
64174;SDS011;50469;50.438;-119.202;2023-07-29T14:27:54;14.43;;;7.70;;
64174;SDS011;50469;50.438;-119.202;2023-07-29T14:30:22;36.45;;;9.10;;
64174;SDS011;50469;50.438;-119.202;2023-07-29T14:32:53;17.80;;;8.45;;
64174;SDS011;50469;50.438;-119.202;2023-07-29T14:35:21;15.52;;;8.23;;
64174;SDS011;50469;50.438;-119.202;2023-07-29T14:37:49;17.77;;;8.48;;
64174;SDS011;50469;50.438;-119.202;2023-07-29T14:40:17;26.35;;;8.88;;